Terminal Aerodrome Forecast
Issued by NWS Albany, NY

Home | Current Version | Previous Version | Text Only | Print | Product List | Glossary On
Versions: 1 2 3 4 5 6 7 8 9 10 11 12 13 14 15 16
000
FTUS41 KALY 260916 AAA
TAFGFL
TAF AMD
KGFL 260916Z 2609/2706 20003KT 3SM BR SCT002
      TEMPO 2609/2611 00000KT 3/4SM BR VV002
     FM261100 22005KT P6SM SCT030
     FM261500 22007KT P6SM BKN050
     FM270000 00000KT P6SM BKN070 PROB30 2700/2705 4SM -SHRA BR
      OVC040=

USA.gov is the U.S. government's official web portal to all federal, state and local government web resources and services.